createdAt,value
2017-04-06T00:00:17.969Z,1013.75
2017-04-06T00:01:28.209Z,1013.71
2017-04-06T00:02:38.457Z,1013.66
2017-04-06T00:03:48.382Z,1013.69
2017-04-06T00:04:58.620Z,1013.74
2017-04-06T00:06:08.558Z,1013.67
2017-04-06T00:07:18.484Z,1013.76
2017-04-06T00:08:28.718Z,1013.79
2017-04-06T00:09:38.330Z,1013.71
2017-04-06T00:10:48.563Z,1013.75
2017-04-06T00:11:58.483Z,1013.67
2017-04-06T00:13:08.408Z,1013.75
2017-04-06T00:14:18.655Z,1013.73
2017-04-06T00:15:28.265Z,1013.74
2017-04-06T00:16:37.874Z,1013.67
2017-04-06T00:17:48.110Z,1013.66
2017-04-06T00:18:58.031Z,1013.72
2017-04-06T00:20:08.273Z,1013.57
2017-04-06T00:21:18.534Z,1013.73
2017-04-06T00:22:28.775Z,1013.66
2017-04-06T00:23:39.011Z,1013.63
2017-04-06T00:24:48.625Z,1013.74
2017-04-06T00:25:58.867Z,1013.71
2017-04-06T00:27:09.107Z,1013.67
2017-04-06T00:28:19.389Z,1013.63
2017-04-06T00:29:29.311Z,1013.63
2017-04-06T00:30:38.934Z,1013.6
2017-04-06T00:31:48.862Z,1013.67
2017-04-06T00:32:59.100Z,1013.58
2017-04-06T00:34:09.347Z,1013.65
2017-04-06T00:35:19.284Z,1013.69
2017-04-06T00:36:29.519Z,1013.64
2017-04-06T00:37:39.757Z,1013.61
2017-04-06T00:38:49.676Z,1013.56
2017-04-06T00:39:59.907Z,1013.58
2017-04-06T00:41:09.521Z,1013.61
2017-04-06T00:42:19.453Z,1013.59
2017-04-06T00:43:29.697Z,1013.63
2017-04-06T00:44:39.621Z,1013.74
2017-04-06T00:45:49.863Z,1013.73
2017-04-06T00:46:59.797Z,1013.71
2017-04-06T00:48:10.059Z,1013.72
2017-04-06T00:49:20.296Z,1013.73
2017-04-06T00:50:30.537Z,1013.72
2017-04-06T00:51:40.778Z,1013.71
2017-04-06T00:52:51.023Z,1013.76
2017-04-06T00:54:00.945Z,1013.71
2017-04-06T00:55:10.882Z,1013.74
2017-04-06T00:56:20.497Z,1013.74
2017-04-06T00:57:30.452Z,1013.72
2017-04-06T00:58:40.691Z,1013.73
2017-04-06T00:59:50.622Z,1013.69
2017-04-06T01:01:00.550Z,1013.74
2017-04-06T01:02:10.795Z,1013.72
2017-04-06T01:03:20.720Z,1013.73
2017-04-06T01:04:30.957Z,1013.79
2017-04-06T01:05:40.899Z,1013.84
2017-04-06T01:06:50.825Z,1013.9
2017-04-06T01:08:01.067Z,1013.77
2017-04-06T01:09:11.313Z,1013.75
2017-04-06T01:10:21.575Z,1013.84
2017-04-06T01:11:31.817Z,1013.79
2017-04-06T01:12:42.055Z,1013.78
2017-04-06T01:13:51.980Z,1013.72
2017-04-06T01:15:02.223Z,1013.7
2017-04-06T01:16:12.151Z,1013.67
2017-04-06T01:17:22.084Z,1013.66
2017-04-06T01:18:32.004Z,1013.67
2017-04-06T01:19:41.617Z,1013.76
2017-04-06T01:20:51.254Z,1013.62
2017-04-06T01:22:01.497Z,1013.67
2017-04-06T01:23:11.424Z,1013.67
2017-04-06T01:24:21.350Z,1013.63
2017-04-06T01:25:31.586Z,1013.61
2017-04-06T01:26:41.823Z,1013.58
2017-04-06T01:27:51.748Z,1013.82
2017-04-06T01:29:01.703Z,1013.66
2017-04-06T01:30:11.317Z,1013.69
2017-04-06T01:31:21.558Z,1013.76
2017-04-06T01:32:31.168Z,1013.74
2017-04-06T01:33:41.410Z,1013.77
2017-04-06T01:34:51.336Z,1013.75
2017-04-06T01:36:01.571Z,1013.74
2017-04-06T01:37:11.811Z,1013.74
2017-04-06T01:38:21.429Z,1013.67
2017-04-06T01:39:31.348Z,1013.74
2017-04-06T01:40:41.585Z,1013.73
2017-04-06T01:41:51.198Z,1013.69
2017-04-06T01:43:01.435Z,1013.69
2017-04-06T01:44:11.364Z,1013.68
2017-04-06T01:45:21.288Z,1013.78
2017-04-06T01:46:31.530Z,1013.67
2017-04-06T01:47:41.771Z,1013.71
2017-04-06T01:48:51.697Z,1013.74
2017-04-06T01:50:01.626Z,1013.6
2017-04-06T01:51:11.866Z,1013.65
2017-04-06T01:52:22.101Z,1013.68
2017-04-06T01:53:32.022Z,1013.63
2017-04-06T01:54:42.260Z,1013.73
2017-04-06T01:55:52.500Z,1013.69
2017-04-06T01:57:02.735Z,1013.69
2017-04-06T01:58:12.975Z,1013.75
2017-04-06T01:59:22.582Z,1013.84
2017-04-06T02:00:32.818Z,1013.84
2017-04-06T02:01:42.758Z,1013.84
2017-04-06T02:02:52.997Z,1013.85
2017-04-06T02:04:03.232Z,1013.87
2017-04-06T02:05:13.484Z,1013.85
2017-04-06T02:06:23.719Z,1013.87
2017-04-06T02:07:33.962Z,1013.91
2017-04-06T02:08:43.907Z,1013.93
2017-04-06T02:09:53.832Z,1013.93
2017-04-06T02:11:03.133Z,1013.91
2017-04-06T02:12:13.375Z,1014
2017-04-06T02:13:23.299Z,1013.96
2017-04-06T02:14:33.549Z,1013.97
2017-04-06T02:15:43.791Z,1013.96
2017-04-06T02:16:54.026Z,1013.95
2017-04-06T02:18:04.267Z,1013.93
2017-04-06T02:19:13.565Z,1013.96
2017-04-06T02:20:23.493Z,1013.93
2017-04-06T02:21:33.732Z,1013.94
2017-04-06T02:22:43.969Z,1013.92
2017-04-06T02:23:54.206Z,1013.96
2017-04-06T02:25:03.813Z,1013.95
2017-04-06T02:26:14.056Z,1013.98
2017-04-06T02:27:23.666Z,1013.96
2017-04-06T02:28:33.597Z,1013.96
2017-04-06T02:29:43.831Z,1013.99
2017-04-06T02:30:54.071Z,1013.95
2017-04-06T02:32:04.319Z,1013.99
2017-04-06T02:33:14.560Z,1013.94
2017-04-06T02:34:24.174Z,1013.92
2017-04-06T02:35:34.097Z,1014.05
2017-04-06T02:36:44.029Z,1013.92
2017-04-06T02:37:54.272Z,1013.99
2017-04-06T02:39:04.201Z,1013.95
2017-04-06T02:40:14.444Z,1014.01
2017-04-06T02:41:24.680Z,1013.98
2017-04-06T02:42:34.294Z,1014.01
2017-04-06T02:43:44.537Z,1013.98
2017-04-06T02:44:54.779Z,1014.03
2017-04-06T02:46:05.017Z,1014.03
2017-04-06T02:47:15.270Z,1014.07
2017-04-06T02:48:25.520Z,1014.04
2017-04-06T02:49:35.757Z,1014.06
2017-04-06T02:50:45.051Z,1014.05
2017-04-06T02:51:55.289Z,1014.02
2017-04-06T02:53:05.535Z,1014.06
2017-04-06T02:54:15.774Z,1014.02
2017-04-06T02:55:25.703Z,1014.08
2017-04-06T02:56:35.965Z,1014.05
2017-04-06T02:57:45.888Z,1014.13
2017-04-06T02:58:56.124Z,1014.07
2017-04-06T03:00:06.052Z,1014.04
2017-04-06T03:01:16.318Z,1014.08
2017-04-06T03:02:26.240Z,1014.08
2017-04-06T03:03:36.182Z,1014.15
2017-04-06T03:04:45.791Z,1014.19
2017-04-06T03:05:55.093Z,1014.18
2017-04-06T03:07:05.331Z,1014.2
2017-04-06T03:08:15.252Z,1014.22
2017-04-06T03:09:25.489Z,1014.25
2017-04-06T03:10:35.424Z,1014.24
2017-04-06T03:11:45.348Z,1014.25
2017-04-06T03:12:54.969Z,1014.3
2017-04-06T03:14:04.584Z,1014.31
2017-04-06T03:15:14.820Z,1014.32
2017-04-06T03:16:25.063Z,1014.36
2017-04-06T03:17:35.305Z,1014.35
2017-04-06T03:18:45.549Z,1014.34
2017-04-06T03:19:55.472Z,1014.38
2017-04-06T03:21:05.717Z,1014.35
2017-04-06T03:22:15.963Z,1014.4
2017-04-06T03:23:26.213Z,1014.36
2017-04-06T03:24:36.451Z,1014.37
2017-04-06T03:25:46.689Z,1014.33
2017-04-06T03:26:56.936Z,1014.36
2017-04-06T03:28:07.169Z,1014.39
2017-04-06T03:29:16.780Z,1014.43
2017-04-06T03:30:26.712Z,1014.35
2017-04-06T03:31:36.959Z,1014.36
2017-04-06T03:32:46.574Z,1014.36
2017-04-06T03:33:56.211Z,1014.38
2017-04-06T03:35:05.831Z,1014.56
2017-04-06T03:36:15.759Z,1014.38
2017-04-06T03:37:25.679Z,1014.41
2017-04-06T03:38:35.933Z,1014.5
2017-04-06T03:39:45.551Z,1014.41
2017-04-06T03:40:55.473Z,1014.43
2017-04-06T03:42:05.400Z,1014.49
2017-04-06T03:43:15.640Z,1014.51
2017-04-06T03:44:25.563Z,1014.48
2017-04-06T03:45:35.487Z,1014.53
2017-04-06T03:46:45.724Z,1014.52
2017-04-06T03:47:55.964Z,1014.61
2017-04-06T03:49:05.268Z,1014.6
2017-04-06T03:50:15.191Z,1014.62
2017-04-06T03:51:25.431Z,1014.61
2017-04-06T03:52:35.685Z,1014.61
2017-04-06T03:53:45.921Z,1014.72
2017-04-06T03:54:55.844Z,1014.66
2017-04-06T03:56:06.085Z,1014.63
2017-04-06T03:57:16.330Z,1014.66
2017-04-06T03:58:26.568Z,1014.64
2017-04-06T03:59:36.816Z,1014.67
2017-04-06T04:00:46.748Z,1014.68
2017-04-06T04:01:56.679Z,1014.66
2017-04-06T04:03:06.919Z,1014.72
2017-04-06T04:04:16.840Z,1014.69
2017-04-06T04:05:27.078Z,1014.7
2017-04-06T04:06:37.318Z,1014.68
2017-04-06T04:07:47.243Z,1014.7
2017-04-06T04:08:56.848Z,1014.64
2017-04-06T04:10:06.775Z,1014.74
2017-04-06T04:11:16.394Z,1014.71
2017-04-06T04:12:26.637Z,1014.69
2017-04-06T04:13:36.249Z,1014.79
2017-04-06T04:14:46.173Z,1014.79
2017-04-06T04:15:56.407Z,1014.79
2017-04-06T04:17:06.019Z,1014.69
2017-04-06T04:18:15.634Z,1014.61
2017-04-06T04:19:25.872Z,1014.74
2017-04-06T04:20:36.107Z,1014.75
2017-04-06T04:21:46.037Z,1014.72
2017-04-06T04:22:56.281Z,1014.67
2017-04-06T04:24:06.516Z,1014.63
2017-04-06T04:25:16.452Z,1014.71
2017-04-06T04:26:26.386Z,1014.7
2017-04-06T04:27:36.313Z,1014.78
2017-04-06T04:28:46.238Z,1014.82
2017-04-06T04:29:56.168Z,1014.74
2017-04-06T04:31:06.098Z,1014.73
2017-04-06T04:32:15.712Z,1014.8
2017-04-06T04:33:25.955Z,1014.81
2017-04-06T04:34:35.881Z,1014.81
2017-04-06T04:35:45.491Z,1014.87
2017-04-06T04:36:55.417Z,1014.78
2017-04-06T04:38:05.656Z,1014.8
2017-04-06T04:39:15.581Z,1014.86
2017-04-06T04:40:25.500Z,1014.87
2017-04-06T04:41:35.733Z,1014.82
2017-04-06T04:42:45.977Z,1014.87
2017-04-06T04:43:56.211Z,1014.92
2017-04-06T04:45:06.139Z,1015.01
2017-04-06T04:46:16.060Z,1014.93
2017-04-06T04:47:26.299Z,1015.01
2017-04-06T04:48:36.563Z,1015
2017-04-06T04:49:46.504Z,1015.05
2017-04-06T04:50:56.115Z,1015.05
2017-04-06T04:52:06.046Z,1014.99
2017-04-06T04:53:15.967Z,1014.98
2017-04-06T04:54:26.210Z,1015.1
2017-04-06T04:55:36.449Z,1015.08
2017-04-06T04:56:46.381Z,1015.18
2017-04-06T04:57:56.624Z,1015.21
2017-04-06T04:59:06.546Z,1015.28
2017-04-06T05:00:16.471Z,1015.28
2017-04-06T05:01:26.710Z,1015.26
2017-04-06T05:02:36.637Z,1015.25
2017-04-06T05:03:46.875Z,1015.32
2017-04-06T05:04:57.118Z,1015.27
2017-04-06T05:06:07.357Z,1015.33
2017-04-06T05:07:17.282Z,1015.32
2017-04-06T05:08:27.204Z,1015.42
2017-04-06T05:09:37.129Z,1015.38
2017-04-06T05:10:47.059Z,1015.33
2017-04-06T05:11:57.298Z,1015.39
2017-04-06T05:13:07.235Z,1015.4
2017-04-06T05:14:17.155Z,1015.43
2017-04-06T05:15:27.386Z,1015.37
2017-04-06T05:16:37.629Z,1015.39
2017-04-06T05:17:47.873Z,1015.4
2017-04-06T05:18:58.106Z,1015.41
2017-04-06T05:20:08.340Z,1015.41
2017-04-06T05:21:18.268Z,1015.46
2017-04-06T05:22:28.508Z,1015.42
2017-04-06T05:23:38.751Z,1015.48
2017-04-06T05:24:48.682Z,1015.42
2017-04-06T05:25:58.918Z,1015.4
2017-04-06T05:27:08.259Z,1015.43
2017-04-06T05:28:18.181Z,1015.43
2017-04-06T05:29:27.793Z,1015.54
2017-04-06T05:30:37.721Z,1015.48
2017-04-06T05:31:47.965Z,1015.42
2017-04-06T05:32:58.230Z,1015.46
2017-04-06T05:34:08.156Z,1015.43
2017-04-06T05:35:18.087Z,1015.49
2017-04-06T05:36:28.016Z,1015.41
2017-04-06T05:37:38.258Z,1015.47
2017-04-06T05:38:48.178Z,1015.49
2017-04-06T05:39:58.411Z,1015.51
2017-04-06T05:41:08.648Z,1015.46
2017-04-06T05:42:18.894Z,1015.48
2017-04-06T05:43:29.130Z,1015.47
2017-04-06T05:44:39.094Z,1015.56
2017-04-06T05:45:49.330Z,1015.65
2017-04-06T05:46:59.570Z,1015.59
2017-04-06T05:48:09.501Z,1015.6
2017-04-06T05:49:19.746Z,1015.64
2017-04-06T05:50:29.990Z,1015.62
2017-04-06T05:51:39.637Z,1015.59
2017-04-06T05:52:49.870Z,1015.65
2017-04-06T05:54:00.104Z,1015.68
2017-04-06T05:55:10.340Z,1015.66
2017-04-06T05:56:20.266Z,1015.73
2017-04-06T05:57:30.508Z,1015.74
2017-04-06T05:58:40.439Z,1015.69
2017-04-06T05:59:49.739Z,1015.7
2017-04-06T06:00:59.976Z,1015.75
2017-04-06T06:02:10.236Z,1015.8
2017-04-06T06:03:20.167Z,1015.79
2017-04-06T06:04:30.424Z,1015.8
2017-04-06T06:05:40.659Z,1015.76
2017-04-06T06:06:50.272Z,1015.78
2017-04-06T06:08:00.516Z,1015.77
2017-04-06T06:09:10.754Z,1015.82
2017-04-06T06:10:20.683Z,1015.81
2017-04-06T06:11:30.930Z,1015.78
2017-04-06T06:12:41.168Z,1015.88
2017-04-06T06:13:51.084Z,1015.89
2017-04-06T06:15:01.006Z,1015.92
2017-04-06T06:16:10.628Z,1015.97
2017-04-06T06:17:20.889Z,1015.92
2017-04-06T06:18:31.131Z,1015.98
2017-04-06T06:19:41.400Z,1015.97
2017-04-06T06:20:51.323Z,1016.06
2017-04-06T06:22:01.564Z,1016.03
2017-04-06T06:23:11.816Z,1016
2017-04-06T06:24:21.743Z,1016.1
2017-04-06T06:25:31.359Z,1016.15
2017-04-06T06:26:41.600Z,1016.09
2017-04-06T06:27:51.850Z,1016.14
2017-04-06T06:29:01.770Z,1016.13
2017-04-06T06:30:12.005Z,1016.15
2017-04-06T06:31:21.926Z,1016.16
2017-04-06T06:32:31.541Z,1016.26
2017-04-06T06:33:41.468Z,1016.15
2017-04-06T06:34:51.077Z,1016.14
2017-04-06T06:36:01.318Z,1016.22
2017-04-06T06:37:11.243Z,1016.2
2017-04-06T06:38:21.488Z,1016.23
2017-04-06T06:39:31.723Z,1016.22
2017-04-06T06:40:41.965Z,1016.18
2017-04-06T06:41:51.896Z,1016.19
2017-04-06T06:43:01.831Z,1016.23
2017-04-06T06:44:12.096Z,1016.26
2017-04-06T06:45:22.336Z,1016.22
2017-04-06T06:46:32.260Z,1016.24
2017-04-06T06:47:41.251Z,1016.22
2017-04-06T06:48:51.486Z,1016.25
2017-04-06T06:50:01.740Z,1016.27
2017-04-06T06:51:10.727Z,1016.26
2017-04-06T06:52:20.675Z,1016.21
2017-04-06T06:53:30.603Z,1016.28
2017-04-06T06:54:40.532Z,1016.22
2017-04-06T06:55:50.455Z,1016.26
2017-04-06T06:57:00.692Z,1016.25
2017-04-06T06:58:10.615Z,1016.22
2017-04-06T06:59:20.235Z,1016.28
2017-04-06T07:00:30.163Z,1016.25
2017-04-06T07:01:40.400Z,1016.22
2017-04-06T07:02:50.328Z,1016.25
2017-04-06T07:04:00.255Z,1016.26
2017-04-06T07:05:10.495Z,1016.32
2017-04-06T07:06:20.428Z,1016.36
2017-04-06T07:07:30.068Z,1016.33
2017-04-06T07:08:39.998Z,1016.34
2017-04-06T07:09:50.236Z,1016.34
2017-04-06T07:11:00.481Z,1016.37
2017-04-06T07:12:10.401Z,1016.36
2017-04-06T07:13:20.638Z,1016.36
2017-04-06T07:14:30.565Z,1016.36
2017-04-06T07:15:40.821Z,1016.38
2017-04-06T07:16:51.069Z,1016.47
2017-04-06T07:18:01.314Z,1016.49
2017-04-06T07:19:10.928Z,1016.48
2017-04-06T07:20:20.859Z,1016.51
2017-04-06T07:21:30.784Z,1016.51
2017-04-06T07:22:41.021Z,1016.52
2017-04-06T07:23:50.957Z,1016.56
2017-04-06T07:25:01.198Z,1016.54
2017-04-06T07:26:11.159Z,1016.55
2017-04-06T07:27:21.398Z,1016.56
2017-04-06T07:28:31.324Z,1016.56
2017-04-06T07:29:41.250Z,1016.62
2017-04-06T07:30:51.180Z,1016.62
2017-04-06T07:32:01.108Z,1016.64
2017-04-06T07:33:10.411Z,1016.64
2017-04-06T07:34:20.643Z,1016.67
2017-04-06T07:35:30.566Z,1016.65
2017-04-06T07:36:40.510Z,1016.65
2017-04-06T07:37:50.122Z,1016.67
2017-04-06T07:38:59.735Z,1016.71
2017-04-06T07:40:09.976Z,1016.74
2017-04-06T07:41:20.212Z,1016.67
2017-04-06T07:42:30.133Z,1016.71
2017-04-06T07:43:40.365Z,1016.7
2017-04-06T07:44:50.601Z,1016.73
2017-04-06T07:46:00.528Z,1016.68
2017-04-06T07:47:10.461Z,1016.7
2017-04-06T07:48:20.393Z,1016.72
2017-04-06T07:49:30.632Z,1016.74
2017-04-06T07:50:40.563Z,1016.81
2017-04-06T07:51:50.803Z,1016.8
2017-04-06T07:53:00.728Z,1016.74
2017-04-06T07:54:10.345Z,1016.77
2017-04-06T07:55:20.285Z,1016.77
2017-04-06T07:56:30.214Z,1016.78
2017-04-06T07:57:40.140Z,1016.77
2017-04-06T07:58:50.383Z,1016.78
2017-04-06T08:00:00.308Z,1016.78
2017-04-06T08:01:09.919Z,1016.8
2017-04-06T08:02:20.156Z,1016.84
2017-04-06T08:03:30.405Z,1016.89
2017-04-06T08:04:40.021Z,1016.85
2017-04-06T08:05:50.260Z,1016.88
2017-04-06T08:07:00.190Z,1016.8
2017-04-06T08:08:10.126Z,1016.8
2017-04-06T08:09:20.058Z,1016.83
2017-04-06T08:10:30.292Z,1016.76
2017-04-06T08:11:39.596Z,1016.81
2017-04-06T08:12:49.836Z,1016.85
2017-04-06T08:14:00.073Z,1016.92
2017-04-06T08:15:09.999Z,1016.83
2017-04-06T08:16:19.919Z,1016.85
2017-04-06T08:17:29.841Z,1016.82
2017-04-06T08:18:39.764Z,1016.88
2017-04-06T08:19:50.004Z,1016.91
2017-04-06T08:21:00.248Z,1016.9
2017-04-06T08:22:10.186Z,1017
2017-04-06T08:23:20.427Z,1016.94
2017-04-06T08:24:29.725Z,1016.94
2017-04-06T08:25:39.339Z,1016.97
2017-04-06T08:26:49.581Z,1016.98
2017-04-06T08:27:59.825Z,1017.02
2017-04-06T08:29:10.079Z,1017.08
2017-04-06T08:30:19.694Z,1017.09
2017-04-06T08:31:29.619Z,1017.03
2017-04-06T08:32:39.243Z,1017.15
2017-04-06T08:33:49.172Z,1017.11
2017-04-06T08:34:59.409Z,1017.07
2017-04-06T08:36:09.657Z,1017.12
2017-04-06T08:37:19.585Z,1017.1
2017-04-06T08:38:28.890Z,1017.19
2017-04-06T08:39:38.817Z,1017.19
2017-04-06T08:40:48.747Z,1017.15
2017-04-06T08:41:58.991Z,1017.16
2017-04-06T08:43:08.919Z,1017.21
2017-04-06T08:44:18.844Z,1017.18
2017-04-06T08:45:29.077Z,1017.12
2017-04-06T08:46:39.316Z,1017.22
2017-04-06T08:47:49.248Z,1017.24
2017-04-06T08:48:59.173Z,1017.15
2017-04-06T08:50:09.407Z,1017.18
2017-04-06T08:51:19.643Z,1017.17
2017-04-06T08:52:29.261Z,1017.18
2017-04-06T08:53:39.509Z,1017.25
2017-04-06T08:54:49.441Z,1017.2
2017-04-06T08:55:59.397Z,1017.25
2017-04-06T08:57:09.633Z,1017.27
2017-04-06T08:58:19.868Z,1017.28
2017-04-06T08:59:29.165Z,1017.39
2017-04-06T09:00:39.399Z,1017.37
2017-04-06T09:01:49.329Z,1017.43
2017-04-06T09:02:58.970Z,1017.38
2017-04-06T09:04:08.902Z,1017.44
2017-04-06T09:05:18.834Z,1017.43
2017-04-06T09:06:28.767Z,1017.33
2017-04-06T09:07:39.004Z,1017.39
2017-04-06T09:08:49.244Z,1017.34
2017-04-06T09:09:59.481Z,1017.29
2017-04-06T09:11:09.720Z,1017.33
2017-04-06T09:12:19.649Z,1017.45
2017-04-06T09:13:29.585Z,1017.4
2017-04-06T09:14:39.830Z,1017.41
2017-04-06T09:15:49.754Z,1017.46
2017-04-06T09:16:59.687Z,1017.48
2017-04-06T09:18:09.613Z,1017.47
2017-04-06T09:19:19.538Z,1017.54
2017-04-06T09:20:29.776Z,1017.55
2017-04-06T09:21:39.715Z,1017.6
2017-04-06T09:22:49.958Z,1017.54
2017-04-06T09:24:00.193Z,1017.52
2017-04-06T09:25:10.428Z,1017.52
2017-04-06T09:26:20.370Z,1017.49
2017-04-06T09:27:29.986Z,1017.59
2017-04-06T09:28:39.599Z,1017.56
2017-04-06T09:29:49.835Z,1017.58
2017-04-06T09:31:00.072Z,1017.6
2017-04-06T09:32:10.009Z,1017.53
2017-04-06T09:33:19.936Z,1017.59
2017-04-06T09:34:30.175Z,1017.56
2017-04-06T09:35:39.794Z,1017.63
2017-04-06T09:36:50.030Z,1017.64
2017-04-06T09:38:00.269Z,1017.62
2017-04-06T09:39:09.885Z,1017.63
2017-04-06T09:40:20.135Z,1017.66
2017-04-06T09:41:30.367Z,1017.65
2017-04-06T09:42:40.619Z,1017.65
2017-04-06T09:43:50.855Z,1017.62
2017-04-06T09:45:01.120Z,1017.58
2017-04-06T09:46:11.060Z,1017.53
2017-04-06T09:47:20.985Z,1017.58
2017-04-06T09:48:30.602Z,1017.46
2017-04-06T09:49:40.841Z,1017.53
2017-04-06T09:50:50.767Z,1017.51
2017-04-06T09:52:01.005Z,1017.56
2017-04-06T09:53:10.953Z,1017.55
2017-04-06T09:54:20.872Z,1017.54
2017-04-06T09:55:30.801Z,1017.54
2017-04-06T09:56:40.725Z,1017.55
2017-04-06T09:57:50.967Z,1017.62
2017-04-06T09:59:00.920Z,1017.53
2017-04-06T10:00:10.532Z,1017.51
2017-04-06T10:01:20.487Z,1017.52
2017-04-06T10:02:30.724Z,1017.5
2017-04-06T10:03:40.964Z,1017.53
2017-04-06T10:04:51.211Z,1017.6
2017-04-06T10:06:01.148Z,1017.63
2017-04-06T10:07:11.387Z,1017.56
2017-04-06T10:08:20.998Z,1017.52
2017-04-06T10:09:30.921Z,1017.52
2017-04-06T10:10:41.163Z,1017.57
2017-04-06T10:11:51.087Z,1017.46
2017-04-06T10:13:01.336Z,1017.6
2017-04-06T10:14:10.949Z,1017.51
2017-04-06T10:15:20.563Z,1017.47
2017-04-06T10:16:30.810Z,1017.56
2017-04-06T10:17:40.740Z,1017.49
2017-04-06T10:18:50.981Z,1017.57
2017-04-06T10:20:00.906Z,1017.64
2017-04-06T10:21:11.145Z,1017.58
2017-04-06T10:22:21.390Z,1017.61
2017-04-06T10:23:31.318Z,1017.68
2017-04-06T10:24:41.552Z,1017.63
2017-04-06T10:25:51.486Z,1017.55
2017-04-06T10:27:01.728Z,1017.68
2017-04-06T10:28:11.343Z,1017.64
2017-04-06T10:29:21.271Z,1017.61
2017-04-06T10:30:31.518Z,1017.67
2017-04-06T10:31:41.132Z,1017.66
2017-04-06T10:32:51.368Z,1017.76
2017-04-06T10:34:01.605Z,1017.64
2017-04-06T10:35:11.851Z,1017.69
2017-04-06T10:36:22.088Z,1017.68
2017-04-06T10:37:32.332Z,1017.76
2017-04-06T10:38:41.944Z,1017.68
2017-04-06T10:39:52.178Z,1017.6
2017-04-06T10:41:02.104Z,1017.6
2017-04-06T10:42:12.343Z,1017.6
2017-04-06T10:43:22.616Z,1017.73
2017-04-06T10:44:32.853Z,1017.61
2017-04-06T10:45:43.090Z,1017.64
2017-04-06T10:46:53.331Z,1017.61
2017-04-06T10:48:03.274Z,1017.63
2017-04-06T10:49:13.518Z,1017.59
2017-04-06T10:50:23.762Z,1017.66
2017-04-06T10:51:33.688Z,1017.65
2017-04-06T10:52:43.921Z,1017.72
2017-04-06T10:53:53.868Z,1017.71
2017-04-06T10:55:04.127Z,1017.67
2017-04-06T10:56:14.370Z,1017.61
2017-04-06T10:57:24.309Z,1017.69
2017-04-06T10:58:34.543Z,1017.72
2017-04-06T10:59:44.780Z,1017.8
2017-04-06T11:00:54.705Z,1017.83
2017-04-06T11:02:04.319Z,1017.79
2017-04-06T11:03:13.934Z,1017.78
2017-04-06T11:04:23.859Z,1017.75
2017-04-06T11:05:34.098Z,1017.66
2017-04-06T11:06:43.730Z,1017.79
2017-04-06T11:07:53.963Z,1017.74
2017-04-06T11:09:04.201Z,1017.73
2017-04-06T11:10:14.436Z,1017.78
2017-04-06T11:11:24.678Z,1017.74
2017-04-06T11:12:34.291Z,1017.67
2017-04-06T11:13:44.531Z,1017.71
2017-04-06T11:14:54.458Z,1017.69
2017-04-06T11:16:04.698Z,1017.69
2017-04-06T11:17:14.935Z,1017.7
2017-04-06T11:18:25.179Z,1017.72
2017-04-06T11:19:35.417Z,1017.73
2017-04-06T11:20:45.353Z,1017.8
2017-04-06T11:21:55.592Z,1017.77
2017-04-06T11:23:05.522Z,1017.77
2017-04-06T11:24:15.141Z,1017.72
2017-04-06T11:25:25.382Z,1017.75
2017-04-06T11:26:35.621Z,1017.76
2017-04-06T11:27:45.546Z,1017.76
2017-04-06T11:28:55.476Z,1017.74
2017-04-06T11:30:05.725Z,1017.71
2017-04-06T11:31:15.962Z,1017.65
2017-04-06T11:32:26.206Z,1017.65
2017-04-06T11:33:35.825Z,1017.63
2017-04-06T11:34:45.748Z,1017.64
2017-04-06T11:35:55.985Z,1017.64
2017-04-06T11:37:06.324Z,1017.75
2017-04-06T11:38:16.565Z,1017.72
2017-04-06T11:39:26.491Z,1017.75
2017-04-06T11:40:35.801Z,1017.72
2017-04-06T11:41:46.043Z,1017.67
2017-04-06T11:42:56.282Z,1017.72
2017-04-06T11:44:06.528Z,1017.65
2017-04-06T11:45:16.766Z,1017.67
2017-04-06T11:46:27.004Z,1017.75
2017-04-06T11:47:36.934Z,1017.73
2017-04-06T11:48:47.170Z,1017.72
2017-04-06T11:49:57.099Z,1017.69
2017-04-06T11:51:07.020Z,1017.7
2017-04-06T11:52:16.635Z,1017.7
2017-04-06T11:53:26.869Z,1017.7
2017-04-06T11:54:37.110Z,1017.73
2017-04-06T11:55:47.036Z,1017.67
2017-04-06T11:56:57.285Z,1017.73
2017-04-06T11:58:07.232Z,1017.67
2017-04-06T11:59:17.164Z,1017.69
2017-04-06T12:00:26.469Z,1017.76
2017-04-06T12:01:36.084Z,1017.74
2017-04-06T12:02:46.006Z,1017.78
2017-04-06T12:03:55.928Z,1017.78
2017-04-06T12:05:06.166Z,1017.64
2017-04-06T12:06:16.435Z,1017.61
2017-04-06T12:07:26.372Z,1017.67
2017-04-06T12:08:36.299Z,1017.8
2017-04-06T12:09:46.222Z,1017.73
2017-04-06T12:10:56.461Z,1017.67
2017-04-06T12:12:06.701Z,1017.63
2017-04-06T12:13:16.941Z,1017.67
2017-04-06T12:14:27.180Z,1017.62
2017-04-06T12:15:37.122Z,1017.69
2017-04-06T12:16:47.050Z,1017.62
2017-04-06T12:17:56.972Z,1017.63
2017-04-06T12:19:07.209Z,1017.59
2017-04-06T12:20:17.161Z,1017.61
2017-04-06T12:21:27.093Z,1017.53
2017-04-06T12:22:36.702Z,1017.56
2017-04-06T12:23:46.954Z,1017.54
2017-04-06T12:24:57.193Z,1017.59
2017-04-06T12:26:07.126Z,1017.53
2017-04-06T12:27:17.052Z,1017.57
2017-04-06T12:28:26.666Z,1017.6
2017-04-06T12:29:36.597Z,1017.58
2017-04-06T12:30:46.892Z,1017.63
2017-04-06T12:31:57.133Z,1017.61
2017-04-06T12:33:07.056Z,1017.64
2017-04-06T12:34:17.297Z,1017.55
2017-04-06T12:35:27.256Z,1017.64
2017-04-06T12:36:37.494Z,1017.48
2017-04-06T12:37:47.729Z,1017.54
2017-04-06T12:38:57.669Z,1017.58
2017-04-06T12:40:07.910Z,1017.56
2017-04-06T12:41:17.532Z,1017.59
2017-04-06T12:42:27.461Z,1017.56
2017-04-06T12:43:37.701Z,1017.55
2017-04-06T12:44:47.943Z,1017.42
2017-04-06T12:45:57.871Z,1017.36
2017-04-06T12:47:08.113Z,1017.35
2017-04-06T12:48:18.054Z,1017.37
2017-04-06T12:49:27.696Z,1017.34
2017-04-06T12:50:37.308Z,1017.34
2017-04-06T12:51:47.552Z,1017.33
2017-04-06T12:52:57.800Z,1017.31
2017-04-06T12:54:07.442Z,1017.33
2017-04-06T12:55:17.684Z,1017.28
2017-04-06T12:56:27.645Z,1017.29
2017-04-06T12:57:37.575Z,1017.3
2017-04-06T12:58:47.811Z,1017.25
2017-04-06T12:59:57.741Z,1017.23
2017-04-06T13:01:07.678Z,1017.3
2017-04-06T13:02:17.922Z,1017.24
2017-04-06T13:03:28.156Z,1017.14
2017-04-06T13:04:38.400Z,1017.17
2017-04-06T13:05:48.361Z,1017.22
2017-04-06T13:06:58.286Z,1017.25
2017-04-06T13:08:08.214Z,1017.17
2017-04-06T13:09:18.145Z,1017.23
2017-04-06T13:10:28.389Z,1017.27
2017-04-06T13:11:38.626Z,1017.22
2017-04-06T13:12:48.560Z,1017.17
2017-04-06T13:13:58.516Z,1017.12
2017-04-06T13:15:08.444Z,1017.13
2017-04-06T13:16:18.372Z,1017.09
2017-04-06T13:17:28.615Z,1017.08
2017-04-06T13:18:38.849Z,1017.06
2017-04-06T13:19:48.773Z,1017.03
2017-04-06T13:20:59.025Z,1017.01
2017-04-06T13:22:09.275Z,1017.09
2017-04-06T13:23:19.204Z,1017.01
2017-04-06T13:24:29.448Z,1017.05
2017-04-06T13:25:39.689Z,1017.18
2017-04-06T13:26:49.620Z,1017.15
2017-04-06T13:27:59.864Z,1017.09
2017-04-06T13:29:09.798Z,1017.05
2017-04-06T13:30:19.724Z,1017.1
2017-04-06T13:31:29.655Z,1016.96
2017-04-06T13:32:39.583Z,1016.93
2017-04-06T13:33:49.507Z,1017.13
2017-04-06T13:34:59.119Z,1017.06
2017-04-06T13:36:08.422Z,1017
2017-04-06T13:37:18.354Z,1017.08
2017-04-06T13:38:28.624Z,1016.96
2017-04-06T13:39:38.548Z,1017.03
2017-04-06T13:40:48.819Z,1017.02
2017-04-06T13:41:59.061Z,1016.97
2017-04-06T13:43:09.008Z,1017
2017-04-06T13:44:18.939Z,1016.9
2017-04-06T13:45:29.178Z,1016.86
2017-04-06T13:46:39.105Z,1016.93
2017-04-06T13:47:49.341Z,1016.97
2017-04-06T13:48:59.273Z,1017.07
2017-04-06T13:50:09.511Z,1017.09
2017-04-06T13:51:19.751Z,1017.07
2017-04-06T13:52:29.675Z,1017.08
2017-04-06T13:53:38.971Z,1017.02
2017-04-06T13:54:48.582Z,1016.92
2017-04-06T13:55:58.507Z,1016.99
2017-04-06T13:57:08.131Z,1017.1
2017-04-06T13:58:18.373Z,1017.17
2017-04-06T13:59:28.616Z,1017
2017-04-06T14:00:38.226Z,1016.98
2017-04-06T14:01:48.151Z,1016.97
2017-04-06T14:02:58.076Z,1016.86
2017-04-06T14:04:07.685Z,1016.99
2017-04-06T14:05:17.926Z,1016.91
2017-04-06T14:06:27.860Z,1016.96
2017-04-06T14:07:37.792Z,1017.04
2017-04-06T14:08:48.028Z,1016.98
2017-04-06T14:09:57.952Z,1016.97